KTVC/TVC METAR and TAF weather

Enter ICAO airport designator
Station Type Date Time Source
KTVC METAR 2021/10/22 18:53 UTC NOAA

KTVC 221853Z 02005KT 10SM SCT044 BKN060 OVC250 09/02 A3000 RMK AO2 SLP161 T00940017


Station Type Date Time Source
KTVC Decoded METAR 2021/10/22 18:53 UTC NOAA

CHERRY CAPITAL AIRPORT, MI, United States (KTVC) 44-44N 085-34W 190M
Oct 22, 2021 - 02:53 PM EDT / 2021.10.22 1853 UTC
Wind: from the NNE (020 degrees) at 6 MPH (5 KT):0
Visibility: 10 mile(s):0
Sky conditions: overcast
Temperature: 48.9 F (9.4 C)
Dew Point: 35.1 F (1.7 C)
Relative Humidity: 58%
Pressure (altimeter): 30 in. Hg (1015 hPa)
ob: KTVC 221853Z 02005KT 10SM SCT044 BKN060 OVC250 09/02 A3000 RMK AO2 SLP161 T00940017
cycle: 19

Station Type Date Time Source
KTVC TAF 2021/10/22 18:30 UTC NOAA

TAF KTVC 221728Z 2218/2318 24003KT P6SM -SHRA SCT025 BKN035
FM230900 34004KT P6SM -SHRA BKN025

Example: see airport list